createdAt,value
2019-03-28T00:00:40.369Z,1020.76
2019-03-28T00:01:40.341Z,1020.70
2019-03-28T00:02:40.331Z,1020.78
2019-03-28T00:03:40.306Z,1020.79
2019-03-28T00:04:40.299Z,1020.72
2019-03-28T00:05:40.286Z,1020.73
2019-03-28T00:06:40.307Z,1020.71
2019-03-28T00:07:40.262Z,1020.84
2019-03-28T00:08:40.248Z,1020.75
2019-03-28T00:09:40.255Z,1020.70
2019-03-28T00:10:40.219Z,1020.73
2019-03-28T00:11:40.262Z,1020.72
2019-03-28T00:12:40.346Z,1020.66
2019-03-28T00:13:40.202Z,1020.71
2019-03-28T00:14:40.190Z,1020.70
2019-03-28T00:15:40.208Z,1020.69
2019-03-28T00:16:40.159Z,1020.68
2019-03-28T00:17:40.139Z,1020.73
2019-03-28T00:18:40.140Z,1020.70
2019-03-28T00:19:40.134Z,1020.69
2019-03-28T00:20:40.139Z,1020.70
2019-03-28T00:21:40.121Z,1020.76
2019-03-28T00:22:40.090Z,1020.71
2019-03-28T00:23:40.077Z,1020.66
2019-03-28T00:24:40.099Z,1020.68
2019-03-28T00:25:40.061Z,1020.64
2019-03-28T00:26:40.071Z,1020.57
2019-03-28T00:27:40.092Z,1020.65
2019-03-28T00:28:40.019Z,1020.63
2019-03-28T00:29:40.014Z,1020.60
2019-03-28T00:30:40.002Z,1020.62
2019-03-28T00:31:39.998Z,1020.54
2019-03-28T00:32:39.980Z,1020.62
2019-03-28T00:33:40.000Z,1020.59
2019-03-28T00:34:39.950Z,1020.62
2019-03-28T00:35:39.940Z,1020.64
2019-03-28T00:36:39.950Z,1020.55
2019-03-28T00:37:39.933Z,1020.56
2019-03-28T00:38:39.950Z,1020.59
2019-03-28T00:39:40.204Z,1020.64
2019-03-28T00:40:39.890Z,1020.60
2019-03-28T00:41:39.880Z,1020.65
2019-03-28T00:42:39.930Z,1020.72
2019-03-28T00:43:39.851Z,1020.60
2019-03-28T00:44:39.841Z,1020.70
2019-03-28T00:45:39.832Z,1020.66
2019-03-28T00:46:39.829Z,1020.61
2019-03-28T00:47:39.819Z,1020.60
2019-03-28T00:48:39.830Z,1020.68
2019-03-28T00:49:39.791Z,1020.67
2019-03-28T00:50:39.781Z,1020.63
2019-03-28T00:51:41.786Z,1020.67
2019-03-28T00:52:39.760Z,1020.66
2019-03-28T00:53:39.750Z,1020.70
2019-03-28T00:54:39.792Z,1020.64
2019-03-28T00:55:39.721Z,1020.63
2019-03-28T00:56:46.864Z,1020.57
2019-03-28T00:57:40.707Z,1020.57
2019-03-28T00:58:39.701Z,1020.55
2019-03-28T00:59:39.679Z,1020.55
2019-03-28T01:00:40.174Z,1020.56
2019-03-28T01:01:39.673Z,1020.53
2019-03-28T01:02:39.642Z,1020.57
2019-03-28T01:03:39.642Z,1020.54
2019-03-28T01:04:39.622Z,1020.55
2019-03-28T01:05:39.621Z,1020.57
2019-03-28T01:06:39.640Z,1020.59
2019-03-28T01:07:39.583Z,1020.62
2019-03-28T01:08:39.582Z,1020.51
2019-03-28T01:09:39.615Z,1020.60
2019-03-28T01:10:39.562Z,1020.54
2019-03-28T01:11:39.568Z,1020.56
2019-03-28T01:12:39.572Z,1020.55
2019-03-28T01:13:39.535Z,1020.51
2019-03-28T01:14:39.525Z,1020.58
2019-03-28T01:15:39.511Z,1020.63
2019-03-28T01:16:39.610Z,1020.55
2019-03-28T01:17:39.534Z,1020.61
2019-03-28T01:18:39.473Z,1020.53
2019-03-28T01:19:39.469Z,1020.56
2019-03-28T01:20:39.469Z,1020.55
2019-03-28T01:21:39.434Z,1020.58
2019-03-28T01:22:39.424Z,1020.54
2019-03-28T01:23:39.486Z,1020.50
2019-03-28T01:24:39.427Z,1020.53
2019-03-28T01:25:39.393Z,1020.52
2019-03-28T01:26:39.383Z,1020.52
2019-03-28T01:27:39.376Z,1020.53
2019-03-28T01:28:39.366Z,1020.48
2019-03-28T01:29:39.416Z,1020.51
2019-03-28T01:30:39.341Z,1020.48
2019-03-28T01:31:39.333Z,1020.53
2019-03-28T01:32:39.324Z,1020.47
2019-03-28T01:33:39.345Z,1020.48
2019-03-28T01:34:39.303Z,1020.52
2019-03-28T01:35:39.292Z,1020.55
2019-03-28T01:36:39.281Z,1020.57
2019-03-28T01:37:39.323Z,1020.55
2019-03-28T01:38:39.254Z,1020.53
2019-03-28T01:39:39.246Z,1020.58
2019-03-28T01:40:39.264Z,1020.58
2019-03-28T01:41:39.224Z,1020.60
2019-03-28T01:42:39.214Z,1020.58
2019-03-28T01:43:39.217Z,1020.61
2019-03-28T01:44:39.213Z,1020.53
2019-03-28T01:45:39.173Z,1020.54
2019-03-28T01:46:39.173Z,1020.56
2019-03-28T01:47:39.304Z,1020.55
2019-03-28T01:48:39.185Z,1020.57
2019-03-28T01:49:39.131Z,1020.56
2019-03-28T01:50:39.185Z,1020.54
2019-03-28T01:51:39.111Z,1020.54
2019-03-28T01:52:39.096Z,1020.55
2019-03-28T01:53:39.084Z,1020.52
2019-03-28T01:54:39.074Z,1020.57
2019-03-28T01:55:39.064Z,1020.53
2019-03-28T01:56:39.065Z,1020.55
2019-03-28T01:57:39.483Z,1020.56
2019-03-28T01:58:39.036Z,1020.55
2019-03-28T01:59:39.027Z,1020.52
2019-03-28T02:00:39.005Z,1020.53
2019-03-28T02:01:39.054Z,1020.52
2019-03-28T02:02:39.086Z,1020.45
2019-03-28T02:03:38.975Z,1020.49
2019-03-28T02:04:38.975Z,1020.46
2019-03-28T02:05:38.962Z,1020.47
2019-03-28T02:06:38.953Z,1020.50
2019-03-28T02:07:38.934Z,1020.47
2019-03-28T02:08:38.946Z,1020.43
2019-03-28T02:09:38.907Z,1020.50
2019-03-28T02:10:38.902Z,1020.48
2019-03-28T02:11:38.885Z,1020.47
2019-03-28T02:12:38.875Z,1020.51
2019-03-28T02:13:38.895Z,1020.49
2019-03-28T02:14:38.865Z,1020.57
2019-03-28T02:15:38.846Z,1020.55
2019-03-28T02:16:38.835Z,1020.53
2019-03-28T02:17:38.828Z,1020.56
2019-03-28T02:18:38.899Z,1020.53
2019-03-28T02:19:38.818Z,1020.55
2019-03-28T02:20:38.797Z,1020.58
2019-03-28T02:21:38.776Z,1020.60
2019-03-28T02:22:38.766Z,1020.58
2019-03-28T02:23:38.784Z,1020.55
2019-03-28T02:24:38.755Z,1020.64
2019-03-28T02:25:38.856Z,1020.59
2019-03-28T02:26:38.726Z,1020.60
2019-03-28T02:27:38.723Z,1020.64
2019-03-28T02:28:38.706Z,1020.57
2019-03-28T02:29:38.685Z,1020.62
2019-03-28T02:30:38.689Z,1020.60
2019-03-28T02:31:38.715Z,1020.59
2019-03-28T02:32:38.681Z,1020.60
2019-03-28T02:33:38.739Z,1020.65
2019-03-28T02:34:38.637Z,1020.65
2019-03-28T02:35:38.627Z,1020.63
2019-03-28T02:36:38.625Z,1020.60
2019-03-28T02:37:38.613Z,1020.61
2019-03-28T02:38:38.603Z,1020.64
2019-03-28T02:39:38.618Z,1020.57
2019-03-28T02:40:38.586Z,1020.61
2019-03-28T02:41:38.568Z,1020.63
2019-03-28T02:42:38.557Z,1020.61
2019-03-28T02:43:38.549Z,1020.58
2019-03-28T02:44:38.567Z,1020.55
2019-03-28T02:45:38.528Z,1020.59
2019-03-28T02:46:38.512Z,1020.65
2019-03-28T02:47:38.498Z,1020.66
2019-03-28T02:48:38.531Z,1020.56
2019-03-28T02:49:38.549Z,1020.54
2019-03-28T02:50:38.470Z,1020.57
2019-03-28T02:51:38.491Z,1020.51
2019-03-28T02:52:38.447Z,1020.50
2019-03-28T02:53:39.519Z,1020.58
2019-03-28T02:54:38.422Z,1020.55
2019-03-28T02:55:38.413Z,1020.61
2019-03-28T02:56:38.408Z,1020.60
2019-03-28T02:57:41.835Z,1020.60
2019-03-28T02:58:38.390Z,1020.70
2019-03-28T02:59:38.377Z,1020.67
2019-03-28T03:00:38.358Z,1020.65
2019-03-28T03:01:38.347Z,1020.68
2019-03-28T03:02:38.377Z,1020.69
2019-03-28T03:03:38.317Z,1020.69
2019-03-28T03:04:38.308Z,1020.74
2019-03-28T03:05:38.297Z,1020.65
2019-03-28T03:06:38.290Z,1020.58
2019-03-28T03:07:38.313Z,1020.61
2019-03-28T03:08:38.273Z,1020.69
2019-03-28T03:09:38.248Z,1020.74
2019-03-28T03:10:38.246Z,1020.73
2019-03-28T03:11:38.248Z,1020.73
2019-03-28T03:12:38.247Z,1020.76
2019-03-28T03:13:38.242Z,1020.77
2019-03-28T03:14:38.261Z,1020.75
2019-03-28T03:15:38.192Z,1020.68
2019-03-28T03:16:38.243Z,1020.70
2019-03-28T03:17:38.168Z,1020.67
2019-03-28T03:18:38.201Z,1020.69
2019-03-28T03:19:38.152Z,1020.73
2019-03-28T03:20:38.138Z,1020.73
2019-03-28T03:21:38.121Z,1020.73
2019-03-28T03:22:38.112Z,1020.74
2019-03-28T03:23:38.109Z,1020.80
2019-03-28T03:24:38.118Z,1020.80
2019-03-28T03:25:38.072Z,1020.74
2019-03-28T03:26:38.058Z,1020.80
2019-03-28T03:27:38.051Z,1020.79
2019-03-28T03:28:38.048Z,1020.86
2019-03-28T03:29:38.047Z,1020.80
2019-03-28T03:30:38.038Z,1020.83
2019-03-28T03:31:38.031Z,1020.84
2019-03-28T03:32:38.157Z,1020.80
2019-03-28T03:33:38.076Z,1020.82
2019-03-28T03:34:38.002Z,1020.84
2019-03-28T03:35:38.000Z,1020.84
2019-03-28T03:36:37.973Z,1020.81
2019-03-28T03:37:37.944Z,1020.80
2019-03-28T03:38:37.950Z,1020.84
2019-03-28T03:39:37.960Z,1020.87
2019-03-28T03:40:37.899Z,1020.83
2019-03-28T03:41:37.898Z,1020.90
2019-03-28T03:42:37.894Z,1020.86
2019-03-28T03:43:37.888Z,1020.91
2019-03-28T03:44:37.882Z,1020.88
2019-03-28T03:45:37.917Z,1020.84
2019-03-28T03:46:37.849Z,1020.83
2019-03-28T03:47:37.831Z,1020.92
2019-03-28T03:48:38.667Z,1020.86
2019-03-28T03:49:37.809Z,1020.85
2019-03-28T03:50:37.851Z,1020.84
2019-03-28T03:51:37.803Z,1020.82
2019-03-28T03:52:37.781Z,1020.88
2019-03-28T03:53:37.762Z,1020.91
2019-03-28T03:54:37.810Z,1020.86
2019-03-28T03:55:37.740Z,1020.84
2019-03-28T03:56:37.751Z,1020.86
2019-03-28T03:57:37.721Z,1020.88
2019-03-28T03:58:37.711Z,1020.88
2019-03-28T03:59:37.786Z,1020.80
2019-03-28T04:00:37.692Z,1020.83
2019-03-28T04:01:37.718Z,1020.96
2019-03-28T04:02:37.661Z,1020.93
2019-03-28T04:03:37.652Z,1021.00
2019-03-28T04:04:37.651Z,1021.00
2019-03-28T04:05:38.559Z,1021.00
2019-03-28T04:06:37.704Z,1020.97
2019-03-28T04:07:37.611Z,1021.03
2019-03-28T04:08:37.590Z,1021.03
2019-03-28T04:09:37.603Z,1021.03
2019-03-28T04:10:37.580Z,1021.04
2019-03-28T04:11:37.566Z,1021.09
2019-03-28T04:12:37.620Z,1021.10
2019-03-28T04:13:37.541Z,1021.15
2019-03-28T04:14:37.530Z,1021.09
2019-03-28T04:15:38.040Z,1021.05
2019-03-28T04:16:37.524Z,1021.08
2019-03-28T04:17:37.554Z,1021.01
2019-03-28T04:18:37.535Z,1021.06
2019-03-28T04:19:37.513Z,1021.03
2019-03-28T04:20:37.472Z,1021.04
2019-03-28T04:21:37.453Z,1020.98
2019-03-28T04:22:37.512Z,1021.05
2019-03-28T04:23:37.445Z,1021.04
2019-03-28T04:24:37.462Z,1021.01
2019-03-28T04:25:37.463Z,1021.06
2019-03-28T04:26:37.402Z,1021.00
2019-03-28T04:27:37.392Z,1020.99
2019-03-28T04:28:38.508Z,1021.01
2019-03-28T04:29:37.368Z,1021.01
2019-03-28T04:30:37.365Z,1021.03
2019-03-28T04:31:37.393Z,1021.05
2019-03-28T04:32:37.330Z,1021.07
2019-03-28T04:33:37.321Z,1021.02
2019-03-28T04:34:37.322Z,1021.11
2019-03-28T04:35:37.370Z,1021.05
2019-03-28T04:36:37.301Z,1021.11
2019-03-28T04:37:37.273Z,1021.08
2019-03-28T04:38:37.275Z,1021.10
2019-03-28T04:39:37.252Z,1021.08
2019-03-28T04:40:37.251Z,1021.08
2019-03-28T04:41:37.266Z,1021.17
2019-03-28T04:42:37.265Z,1021.09
2019-03-28T04:43:37.213Z,1021.14
2019-03-28T04:44:37.202Z,1021.09
2019-03-28T04:45:37.194Z,1021.19
2019-03-28T04:46:37.233Z,1021.13
2019-03-28T04:47:37.162Z,1021.18
2019-03-28T04:48:37.163Z,1021.23
2019-03-28T04:49:37.154Z,1021.19
2019-03-28T04:50:37.136Z,1021.20
2019-03-28T04:51:37.163Z,1021.11
2019-03-28T04:52:37.160Z,1021.21
2019-03-28T04:53:37.587Z,1021.23
2019-03-28T04:54:37.096Z,1021.19
2019-03-28T04:55:37.083Z,1021.20
2019-03-28T04:56:37.113Z,1021.15
2019-03-28T04:57:37.082Z,1021.22
2019-03-28T04:58:44.502Z,1021.17
2019-03-28T04:59:38.033Z,1021.16
2019-03-28T05:00:37.054Z,1021.19
2019-03-28T05:01:37.012Z,1021.13
2019-03-28T05:02:37.003Z,1021.19
2019-03-28T05:03:37.008Z,1021.22
2019-03-28T05:04:36.973Z,1021.18
2019-03-28T05:05:36.989Z,1021.16
2019-03-28T05:06:38.135Z,1021.18
2019-03-28T05:07:36.944Z,1021.08
2019-03-28T05:08:36.934Z,1021.18
2019-03-28T05:09:36.933Z,1021.15
2019-03-28T05:10:36.937Z,1021.13
2019-03-28T05:11:36.903Z,1021.15
2019-03-28T05:12:36.904Z,1021.14
2019-03-28T05:13:36.882Z,1021.18
2019-03-28T05:14:36.883Z,1021.16
2019-03-28T05:15:36.877Z,1021.23
2019-03-28T05:16:36.853Z,1021.20
2019-03-28T05:17:36.844Z,1021.25
2019-03-28T05:18:36.833Z,1021.27
2019-03-28T05:19:36.868Z,1021.21
2019-03-28T05:20:36.812Z,1021.29
2019-03-28T05:21:36.795Z,1021.27
2019-03-28T05:22:36.785Z,1021.18
2019-03-28T05:23:36.774Z,1021.26
2019-03-28T05:24:36.777Z,1021.21
2019-03-28T05:25:36.774Z,1021.22
2019-03-28T05:26:36.736Z,1021.29
2019-03-28T05:27:36.738Z,1021.26
2019-03-28T05:28:36.727Z,1021.20
2019-03-28T05:29:36.704Z,1021.29
2019-03-28T05:30:36.710Z,1021.27
2019-03-28T05:31:36.695Z,1021.30
2019-03-28T05:32:36.675Z,1021.25
2019-03-28T05:33:36.665Z,1021.22
2019-03-28T05:34:36.688Z,1021.24
2019-03-28T05:35:36.654Z,1021.29
2019-03-28T05:36:36.636Z,1021.31
2019-03-28T05:37:36.717Z,1021.29
2019-03-28T05:38:36.604Z,1021.26
2019-03-28T05:39:36.599Z,1021.29
2019-03-28T05:40:36.783Z,1021.35
2019-03-28T05:41:36.585Z,1021.27
2019-03-28T05:42:36.575Z,1021.33
2019-03-28T05:43:36.569Z,1021.27
2019-03-28T05:44:36.545Z,1021.31
2019-03-28T05:45:36.551Z,1021.28
2019-03-28T05:46:36.545Z,1021.32
2019-03-28T05:47:36.515Z,1021.25
2019-03-28T05:48:36.505Z,1021.31
2019-03-28T05:49:36.486Z,1021.29
2019-03-28T05:50:36.473Z,1021.31
2019-03-28T05:51:36.466Z,1021.32
2019-03-28T05:52:36.512Z,1021.25
2019-03-28T05:53:36.445Z,1021.27
2019-03-28T05:54:36.438Z,1021.26
2019-03-28T05:55:36.428Z,1021.26
2019-03-28T05:56:36.416Z,1021.28
2019-03-28T05:57:36.409Z,1021.28
2019-03-28T05:58:36.405Z,1021.28
2019-03-28T05:59:36.385Z,1021.28
2019-03-28T06:00:38.944Z,1021.27
2019-03-28T06:01:36.369Z,1021.28
2019-03-28T06:02:36.346Z,1021.34
2019-03-28T06:03:36.336Z,1021.28
2019-03-28T06:04:36.336Z,1021.27
2019-03-28T06:05:36.315Z,1021.32
2019-03-28T06:06:36.300Z,1021.36
2019-03-28T06:07:36.483Z,1021.38
2019-03-28T06:08:36.275Z,1021.38
2019-03-28T06:09:36.276Z,1021.43
2019-03-28T06:10:36.491Z,1021.39
2019-03-28T06:11:36.288Z,1021.40
2019-03-28T06:12:36.227Z,1021.44
2019-03-28T06:13:36.240Z,1021.46
2019-03-28T06:14:36.206Z,1021.50
2019-03-28T06:15:36.197Z,1021.49
2019-03-28T06:16:36.257Z,1021.54
2019-03-28T06:17:36.185Z,1021.49
2019-03-28T06:18:36.166Z,1021.58
2019-03-28T06:19:36.147Z,1021.56
2019-03-28T06:20:36.136Z,1021.55
2019-03-28T06:21:36.147Z,1021.59
2019-03-28T06:22:36.136Z,1021.64
2019-03-28T06:23:36.123Z,1021.58
2019-03-28T06:24:36.148Z,1021.57
2019-03-28T06:25:36.112Z,1021.63
2019-03-28T06:26:36.076Z,1021.62
2019-03-28T06:27:36.071Z,1021.60
2019-03-28T06:28:36.057Z,1021.64
2019-03-28T06:29:36.051Z,1021.57
2019-03-28T06:30:36.087Z,1021.64
2019-03-28T06:31:36.342Z,1021.65
2019-03-28T06:32:42.706Z,1021.59
2019-03-28T06:33:38.449Z,1021.55
2019-03-28T06:34:35.989Z,1021.51
2019-03-28T06:35:35.980Z,1021.56
2019-03-28T06:36:35.976Z,1021.63
2019-03-28T06:37:35.961Z,1021.55
2019-03-28T06:38:35.937Z,1021.63
2019-03-28T06:39:36.613Z,1021.65
2019-03-28T06:40:35.928Z,1021.66
2019-03-28T06:41:35.928Z,1021.69
2019-03-28T06:42:35.907Z,1021.75
2019-03-28T06:43:35.902Z,1021.75
2019-03-28T06:44:35.876Z,1021.69
2019-03-28T06:45:35.869Z,1021.74
2019-03-28T06:46:35.868Z,1021.75
2019-03-28T06:47:35.848Z,1021.74
2019-03-28T06:48:35.832Z,1021.75
2019-03-28T06:49:35.818Z,1021.78
2019-03-28T06:50:35.814Z,1021.71
2019-03-28T06:51:35.839Z,1021.76
2019-03-28T06:52:35.811Z,1021.79
2019-03-28T06:53:35.779Z,1021.74
2019-03-28T06:54:35.769Z,1021.74
2019-03-28T06:55:37.008Z,1021.81
2019-03-28T06:56:35.749Z,1021.78
2019-03-28T06:57:35.759Z,1021.76
2019-03-28T06:58:35.724Z,1021.78
2019-03-28T06:59:37.505Z,1021.83
2019-03-28T07:00:35.709Z,1021.81
2019-03-28T07:01:35.690Z,1021.82
2019-03-28T07:02:35.679Z,1021.80
2019-03-28T07:03:35.679Z,1021.87
2019-03-28T07:04:35.658Z,1021.88
2019-03-28T07:05:35.653Z,1021.78
2019-03-28T07:06:35.637Z,1021.78
2019-03-28T07:07:35.621Z,1021.77
2019-03-28T07:08:35.633Z,1021.78
2019-03-28T07:09:35.601Z,1021.85
2019-03-28T07:10:36.451Z,1021.90
2019-03-28T07:11:35.590Z,1021.83
2019-03-28T07:12:35.571Z,1021.82
2019-03-28T07:13:36.364Z,1021.84
2019-03-28T07:14:35.553Z,1021.81
2019-03-28T07:15:36.879Z,1021.78
2019-03-28T07:16:35.541Z,1021.81
2019-03-28T07:17:35.521Z,1021.80
2019-03-28T07:18:35.525Z,1021.77
2019-03-28T07:19:35.492Z,1021.78
2019-03-28T07:20:35.482Z,1021.80
2019-03-28T07:21:35.504Z,1021.84
2019-03-28T07:22:35.470Z,1021.78
2019-03-28T07:23:35.485Z,1021.79
2019-03-28T07:24:35.456Z,1021.79
2019-03-28T07:25:35.433Z,1021.79
2019-03-28T07:26:35.462Z,1021.80
2019-03-28T07:27:35.412Z,1021.80
2019-03-28T07:28:35.415Z,1021.81
2019-03-28T07:29:35.392Z,1021.76
2019-03-28T07:30:35.371Z,1021.85
2019-03-28T07:31:35.730Z,1021.79
2019-03-28T07:32:35.392Z,1021.77
2019-03-28T07:33:35.365Z,1021.78
2019-03-28T07:34:35.382Z,1021.80
2019-03-28T07:35:35.322Z,1021.77
2019-03-28T07:36:35.312Z,1021.74
2019-03-28T07:37:35.312Z,1021.77
2019-03-28T07:38:35.318Z,1021.73
2019-03-28T07:39:35.283Z,1021.64
2019-03-28T07:40:35.303Z,1021.75
2019-03-28T07:41:42.302Z,1021.78
2019-03-28T07:42:35.251Z,1021.74
2019-03-28T07:43:35.233Z,1021.76
2019-03-28T07:44:37.516Z,1021.79
2019-03-28T07:45:35.211Z,1021.75
2019-03-28T07:46:35.236Z,1021.75
2019-03-28T07:47:35.198Z,1021.79
2019-03-28T07:48:35.183Z,1021.68
2019-03-28T07:49:37.580Z,1021.77
2019-03-28T07:50:35.154Z,1021.70
2019-03-28T07:51:35.194Z,1021.75
2019-03-28T07:52:35.155Z,1021.76
2019-03-28T07:53:35.134Z,1021.69
2019-03-28T07:54:35.121Z,1021.74
2019-03-28T07:55:35.119Z,1021.67
2019-03-28T07:56:35.092Z,1021.69
2019-03-28T07:57:35.143Z,1021.76
2019-03-28T07:58:35.403Z,1021.79
2019-03-28T07:59:35.064Z,1021.84
2019-03-28T08:00:35.135Z,1021.85
2019-03-28T08:01:35.058Z,1021.74
2019-03-28T08:02:35.036Z,1021.69
2019-03-28T08:03:35.048Z,1021.81
2019-03-28T08:04:35.017Z,1021.82
2019-03-28T08:05:34.996Z,1021.78
2019-03-28T08:06:35.000Z,1021.80
2019-03-28T08:07:44.807Z,1021.77
2019-03-28T08:08:39.029Z,1021.77
2019-03-28T08:09:36.878Z,1021.74
2019-03-28T08:10:35.017Z,1021.74
2019-03-28T08:11:35.105Z,1021.76
2019-03-28T08:12:34.926Z,1021.85
2019-03-28T08:13:34.918Z,1021.83
2019-03-28T08:14:34.918Z,1021.83
2019-03-28T08:15:34.888Z,1021.82
2019-03-28T08:16:34.868Z,1021.86
2019-03-28T08:17:34.858Z,1021.82
2019-03-28T08:18:34.848Z,1021.82
2019-03-28T08:19:34.856Z,1021.89
2019-03-28T08:20:34.828Z,1021.82
2019-03-28T08:21:34.841Z,1021.84
2019-03-28T08:22:34.808Z,1021.84
2019-03-28T08:23:35.436Z,1021.86
2019-03-28T08:24:34.808Z,1021.87
2019-03-28T08:25:34.839Z,1021.87
2019-03-28T08:26:34.783Z,1021.86
2019-03-28T08:27:34.772Z,1021.90
2019-03-28T08:28:34.752Z,1021.88
2019-03-28T08:29:34.728Z,1021.92
2019-03-28T08:30:34.756Z,1021.85
2019-03-28T08:31:34.743Z,1021.84
2019-03-28T08:32:34.849Z,1021.82
2019-03-28T08:33:34.702Z,1021.78
2019-03-28T08:34:34.681Z,1021.82
2019-03-28T08:35:34.668Z,1021.85
2019-03-28T08:36:34.700Z,1021.84
2019-03-28T08:37:34.639Z,1021.79
2019-03-28T08:38:34.643Z,1021.78
2019-03-28T08:39:34.631Z,1021.84
2019-03-28T08:40:34.610Z,1021.85
2019-03-28T08:41:34.615Z,1021.81
2019-03-28T08:42:34.614Z,1021.86
2019-03-28T08:43:35.988Z,1021.82
2019-03-28T08:44:34.561Z,1021.80
2019-03-28T08:45:34.670Z,1021.82
2019-03-28T08:46:34.558Z,1021.83
2019-03-28T08:47:34.540Z,1021.92
2019-03-28T08:48:34.536Z,1021.95
2019-03-28T08:49:34.530Z,1021.98
2019-03-28T08:50:34.505Z,1022.02
2019-03-28T08:51:34.503Z,1021.92
2019-03-28T08:52:34.503Z,1021.96
2019-03-28T08:53:34.473Z,1021.88
2019-03-28T08:54:34.464Z,1021.85
2019-03-28T08:55:34.454Z,1021.92
2019-03-28T08:56:34.598Z,1021.86
2019-03-28T08:57:34.446Z,1021.93
2019-03-28T08:58:37.858Z,1021.97
2019-03-28T08:59:34.416Z,1022.04
2019-03-28T09:00:50.057Z,1021.94
2019-03-28T09:01:35.375Z,1021.94
2019-03-28T09:02:34.367Z,1021.95
2019-03-28T09:03:34.366Z,1021.94
2019-03-28T09:04:34.356Z,1021.94
2019-03-28T09:05:34.454Z,1021.99
2019-03-28T09:06:34.329Z,1022.11
2019-03-28T09:07:34.369Z,1022.03
2019-03-28T09:08:34.314Z,1022.08
2019-03-28T09:09:34.310Z,1022.21
2019-03-28T09:10:34.367Z,1022.17
2019-03-28T09:11:34.267Z,1022.10
2019-03-28T09:12:35.308Z,1022.16
2019-03-28T09:13:34.265Z,1022.00
2019-03-28T09:14:34.290Z,1022.00
2019-03-28T09:15:43.453Z,1022.06
2019-03-28T09:16:35.216Z,1022.11
2019-03-28T09:17:34.224Z,1022.15
2019-03-28T09:18:34.208Z,1022.27
2019-03-28T09:19:34.189Z,1022.18
2019-03-28T09:20:34.592Z,1022.19
2019-03-28T09:21:34.192Z,1022.22
2019-03-28T09:22:34.180Z,1022.17
2019-03-28T09:23:34.157Z,1022.23
2019-03-28T09:24:34.151Z,1022.21
2019-03-28T09:25:34.180Z,1022.19
2019-03-28T09:26:34.110Z,1022.21
2019-03-28T09:27:34.114Z,1022.23
2019-03-28T09:28:34.084Z,1022.16
2019-03-28T09:29:34.070Z,1022.18
2019-03-28T09:30:47.559Z,1022.21
2019-03-28T09:31:35.108Z,1022.15
2019-03-28T09:32:34.072Z,1022.16
2019-03-28T09:33:34.054Z,1022.20
2019-03-28T09:34:34.035Z,1022.14
2019-03-28T09:35:34.023Z,1022.19
2019-03-28T09:36:34.024Z,1022.16
2019-03-28T09:37:34.023Z,1022.19
2019-03-28T09:38:33.983Z,1022.23
2019-03-28T09:39:33.983Z,1022.26
2019-03-28T09:40:33.963Z,1022.18
2019-03-28T09:41:33.942Z,1022.16
2019-03-28T09:42:33.984Z,1022.27
2019-03-28T09:43:33.923Z,1022.14
2019-03-28T09:44:33.907Z,1022.26
2019-03-28T09:45:33.906Z,1022.26
2019-03-28T09:46:33.912Z,1022.26
2019-03-28T09:47:33.947Z,1022.31
2019-03-28T09:48:33.866Z,1022.23
2019-03-28T09:49:33.866Z,1022.25
2019-03-28T09:50:33.846Z,1022.24
2019-03-28T09:51:35.346Z,1022.24
2019-03-28T09:52:33.835Z,1022.22
2019-03-28T09:53:33.868Z,1022.22
2019-03-28T09:54:33.806Z,1022.14
2019-03-28T09:55:33.797Z,1022.14
2019-03-28T09:56:33.777Z,1022.20
2019-03-28T09:57:33.823Z,1022.12
2019-03-28T09:58:34.063Z,1022.15
2019-03-28T09:59:33.757Z,1022.21
2019-03-28T10:00:34.552Z,1022.26
2019-03-28T10:01:33.718Z,1022.20
2019-03-28T10:02:33.718Z,1022.17
2019-03-28T10:03:33.748Z,1022.18
2019-03-28T10:04:33.698Z,1022.16
2019-03-28T10:05:33.680Z,1022.18
2019-03-28T10:06:33.679Z,1022.23
2019-03-28T10:07:33.658Z,1022.19
2019-03-28T10:08:33.712Z,1022.16
2019-03-28T10:09:33.653Z,1022.09
2019-03-28T10:10:33.637Z,1022.19
2019-03-28T10:11:33.620Z,1022.22
2019-03-28T10:12:34.336Z,1022.19
2019-03-28T10:13:33.613Z,1022.07
2019-03-28T10:14:33.641Z,1022.16
2019-03-28T10:15:36.792Z,1022.23
2019-03-28T10:16:33.564Z,1022.13
2019-03-28T10:17:33.560Z,1022.19
2019-03-28T10:18:33.547Z,1022.18
2019-03-28T10:19:33.565Z,1022.15
2019-03-28T10:20:33.526Z,1022.27
2019-03-28T10:21:33.502Z,1022.26
2019-03-28T10:22:33.503Z,1022.22
2019-03-28T10:23:33.496Z,1022.13
2019-03-28T10:24:33.483Z,1022.15
2019-03-28T10:25:33.536Z,1022.20
2019-03-28T10:26:33.456Z,1022.24
2019-03-28T10:27:33.444Z,1022.20
2019-03-28T10:28:33.443Z,1022.15
2019-03-28T10:29:33.415Z,1022.13
2019-03-28T10:30:33.426Z,1022.25
2019-03-28T10:31:33.455Z,1022.28
2019-03-28T10:32:33.408Z,1022.27
2019-03-28T10:33:33.385Z,1022.30
2019-03-28T10:34:33.366Z,1022.24
2019-03-28T10:35:33.363Z,1022.48
2019-03-28T10:36:33.405Z,1022.09
2019-03-28T10:37:33.335Z,1022.03
2019-03-28T10:38:33.327Z,1022.07
2019-03-28T10:39:33.318Z,1022.08
2019-03-28T10:40:33.314Z,1022.11
2019-03-28T10:41:33.329Z,1022.10
2019-03-28T10:42:33.278Z,1022.09
2019-03-28T10:43:33.289Z,1022.09
2019-03-28T10:44:33.280Z,1022.04
2019-03-28T10:45:33.714Z,1021.95
2019-03-28T10:46:33.238Z,1021.99
2019-03-28T10:47:33.230Z,1022.05
2019-03-28T10:48:33.209Z,1022.03
2019-03-28T10:49:33.210Z,1022.14
2019-03-28T10:50:41.357Z,1022.14
2019-03-28T10:51:34.200Z,1022.07
2019-03-28T10:52:33.183Z,1022.07
2019-03-28T10:53:33.182Z,1022.06
2019-03-28T10:54:33.202Z,1022.10
2019-03-28T10:55:33.133Z,1022.06
2019-03-28T10:56:33.122Z,1022.13
2019-03-28T10:57:33.122Z,1022.08
2019-03-28T10:58:35.000Z,1022.08
2019-03-28T10:59:33.142Z,1022.09
2019-03-28T11:00:33.106Z,1022.14
2019-03-28T11:01:47.971Z,1022.18
2019-03-28T11:02:34.063Z,1022.16
2019-03-28T11:03:33.073Z,1022.18
2019-03-28T11:04:33.050Z,1022.15
2019-03-28T11:05:33.053Z,1022.19
2019-03-28T11:06:33.073Z,1022.11
2019-03-28T11:07:33.022Z,1022.08
2019-03-28T11:08:36.294Z,1022.05
2019-03-28T11:09:33.007Z,1022.15
2019-03-28T11:10:32.983Z,1022.15
2019-03-28T11:11:32.964Z,1022.08
2019-03-28T11:12:32.997Z,1022.08
2019-03-28T11:13:32.949Z,1022.13
2019-03-28T11:14:32.934Z,1022.17
2019-03-28T11:15:32.928Z,1022.17
2019-03-28T11:16:32.955Z,1022.14
2019-03-28T11:17:32.896Z,1022.17
2019-03-28T11:18:32.884Z,1022.18
2019-03-28T11:19:32.874Z,1022.17
2019-03-28T11:20:32.877Z,1022.22
2019-03-28T11:21:34.352Z,1022.19
2019-03-28T11:22:32.876Z,1022.18
2019-03-28T11:23:32.880Z,1022.17
2019-03-28T11:24:32.830Z,1022.16
2019-03-28T11:25:32.816Z,1022.17
2019-03-28T11:26:32.802Z,1022.18
2019-03-28T11:27:32.786Z,1022.18
2019-03-28T11:28:32.789Z,1022.12
2019-03-28T11:29:33.748Z,1022.15
2019-03-28T11:30:32.757Z,1022.11
2019-03-28T11:31:45.617Z,1022.12
2019-03-28T11:32:35.934Z,1022.11
2019-03-28T11:33:32.796Z,1022.05
2019-03-28T11:34:32.718Z,1022.05
2019-03-28T11:35:32.874Z,1022.11
2019-03-28T11:36:32.701Z,1022.11
2019-03-28T11:37:32.678Z,1022.13
2019-03-28T11:38:32.667Z,1022.16
2019-03-28T11:39:32.678Z,1022.20
2019-03-28T11:40:32.649Z,1022.16
2019-03-28T11:41:32.630Z,1022.16
2019-03-28T11:42:32.649Z,1022.11
2019-03-28T11:43:32.619Z,1022.18
2019-03-28T11:44:32.659Z,1022.15
2019-03-28T11:45:32.589Z,1022.20
2019-03-28T11:46:32.591Z,1022.16
2019-03-28T11:47:32.579Z,1022.16
2019-03-28T11:48:32.571Z,1022.13
2019-03-28T11:49:32.560Z,1022.20
2019-03-28T11:50:32.570Z,1022.20
2019-03-28T11:51:32.530Z,1022.19
2019-03-28T11:52:32.511Z,1022.20
2019-03-28T11:53:32.500Z,1022.12
2019-03-28T11:54:32.519Z,1022.13
2019-03-28T11:55:32.516Z,1022.20
2019-03-28T11:56:32.498Z,1022.09
2019-03-28T11:57:32.461Z,1022.11
2019-03-28T11:58:32.472Z,1022.12
2019-03-28T11:59:33.150Z,1022.11
2019-03-28T12:00:32.445Z,1022.19
2019-03-28T12:01:32.435Z,1022.16
2019-03-28T12:02:32.462Z,1022.11
2019-03-28T12:03:32.415Z,1022.11
2019-03-28T12:04:32.390Z,1022.15
2019-03-28T12:05:32.375Z,1022.10